createdAt,value
2022-11-25T04:29:38.202Z,4.80
2022-11-25T04:32:04.992Z,4.80
2022-11-25T04:34:31.577Z,4.70
2022-11-25T04:36:58.232Z,4.70
2022-11-25T04:39:24.824Z,4.60
2022-11-25T04:42:11.445Z,4.70
2022-11-25T04:44:38.363Z,4.80
2022-11-25T04:47:05.186Z,4.80
2022-11-25T04:49:31.830Z,4.80
2022-11-25T04:51:58.438Z,4.90
2022-11-25T04:54:25.009Z,5.00
2022-11-25T04:56:51.670Z,5.00
2022-11-25T04:59:36.979Z,5.10
2022-11-25T05:02:03.652Z,5.10
2022-11-25T05:04:30.381Z,5.20
2022-11-25T05:06:57.152Z,5.30
2022-11-25T05:09:23.764Z,5.30
2022-11-25T05:11:50.416Z,5.30
2022-11-25T05:14:17.112Z,5.40
2022-11-25T05:16:43.771Z,5.40
2022-11-25T05:19:10.387Z,5.40
2022-11-25T05:21:37.032Z,5.50
2022-11-25T05:24:04.909Z,5.50
2022-11-25T05:26:31.710Z,5.50
2022-11-25T05:28:58.316Z,5.50
2022-11-25T05:31:24.900Z,5.50
2022-11-25T05:33:51.544Z,5.60
2022-11-25T05:36:18.303Z,5.60
2022-11-25T05:38:45.136Z,5.60
2022-11-25T05:41:12.194Z,5.60
2022-11-25T05:43:38.866Z,5.60
2022-11-25T05:46:10.059Z,5.60
2022-11-25T05:48:36.937Z,5.70
2022-11-25T05:51:04.517Z,5.70
2022-11-25T05:53:31.265Z,5.70
2022-11-25T05:55:59.940Z,5.80
2022-11-25T05:58:28.770Z,5.80
2022-11-25T06:00:56.039Z,5.80
2022-11-25T06:03:29.283Z,5.90
2022-11-25T06:05:57.664Z,5.90
2022-11-25T06:08:24.812Z,5.90
2022-11-25T06:10:51.735Z,5.80
2022-11-25T06:13:18.902Z,5.90
2022-11-25T06:15:46.216Z,5.90
2022-11-25T06:18:15.958Z,5.90
2022-11-25T06:20:42.982Z,5.90
2022-11-25T06:23:10.413Z,5.90
2022-11-25T06:25:37.456Z,5.90
2022-11-25T06:28:12.765Z,5.90
2022-11-25T06:30:40.224Z,5.90
2022-11-25T06:33:06.889Z,5.90
2022-11-25T06:35:33.635Z,5.90
2022-11-25T06:38:00.439Z,5.90
2022-11-25T06:40:27.131Z,5.90
2022-11-25T06:42:53.930Z,5.90
2022-11-25T06:45:20.624Z,5.90
2022-11-25T06:47:47.252Z,5.90
2022-11-25T06:50:13.938Z,5.90
2022-11-25T06:52:40.508Z,5.90
2022-11-25T06:55:07.479Z,5.90
2022-11-25T06:57:34.065Z,5.90
2022-11-25T07:00:00.684Z,5.90
2022-11-25T07:02:27.827Z,5.90
2022-11-25T07:04:54.467Z,5.90
2022-11-25T07:07:21.383Z,5.90
2022-11-25T07:09:48.007Z,6.00
2022-11-25T07:12:14.632Z,5.90
2022-11-25T07:14:41.281Z,5.90
2022-11-25T07:17:11.968Z,5.90
2022-11-25T07:19:39.133Z,5.90
2022-11-25T07:22:05.731Z,5.90
2022-11-25T07:24:33.801Z,5.90
2022-11-25T07:27:00.829Z,6.00
2022-11-25T07:29:54.184Z,6.00
2022-11-25T07:32:14.509Z,6.00
2022-11-25T07:34:41.338Z,6.00
2022-11-25T07:37:08.076Z,6.10
2022-11-25T07:39:35.168Z,6.10
2022-11-25T07:42:01.943Z,6.10
2022-11-25T07:44:28.556Z,6.10
2022-11-25T07:46:55.338Z,6.10
2022-11-25T07:49:25.262Z,6.20
2022-11-25T07:51:54.277Z,6.20
2022-11-25T07:54:22.585Z,6.20
2022-11-25T07:56:55.635Z,6.20
2022-11-25T07:59:22.999Z,6.30
2022-11-25T08:01:51.541Z,6.30
2022-11-25T08:04:20.637Z,6.30
2022-11-25T08:06:50.163Z,6.40
2022-11-25T08:09:19.956Z,6.40
2022-11-25T08:11:47.612Z,6.50
2022-11-25T08:14:15.036Z,6.50
2022-11-25T08:16:41.883Z,6.50
2022-11-25T08:19:11.494Z,6.50
2022-11-25T08:21:38.212Z,6.50
2022-11-25T08:24:05.306Z,6.60
2022-11-25T08:26:36.410Z,6.60
2022-11-25T08:29:05.169Z,6.60
2022-11-25T08:31:37.765Z,6.60
2022-11-25T08:34:06.341Z,6.50
2022-11-25T08:36:34.841Z,6.50
2022-11-25T08:39:12.633Z,6.50
2022-11-25T08:41:49.450Z,6.60
2022-11-25T08:44:16.140Z,6.60
2022-11-25T08:46:42.922Z,6.70
2022-11-25T08:49:11.489Z,6.70
2022-11-25T08:51:38.857Z,6.70
2022-11-25T08:54:07.490Z,6.80
2022-11-25T08:56:34.847Z,6.90
2022-11-25T08:59:01.519Z,7.20
2022-11-25T09:01:28.522Z,7.40
2022-11-25T09:03:56.395Z,7.80
2022-11-25T09:06:24.633Z,8.60
2022-11-25T09:08:54.059Z,9.40
2022-11-25T09:11:20.727Z,9.70
2022-11-25T09:13:49.627Z,9.70
2022-11-25T09:16:16.338Z,9.80
2022-11-25T09:18:43.187Z,9.60
2022-11-25T09:21:16.687Z,9.40
2022-11-25T09:23:43.585Z,9.30
2022-11-25T09:26:24.017Z,9.00
2022-11-25T09:28:50.674Z,8.80
2022-11-25T09:31:17.670Z,8.80
2022-11-25T09:33:45.833Z,9.20
2022-11-25T09:36:14.934Z,9.40
2022-11-25T09:38:44.598Z,9.70
2022-11-25T09:42:12.681Z,9.60
2022-11-25T09:45:19.618Z,9.50
2022-11-25T09:48:03.821Z,9.40
2022-11-25T09:50:52.420Z,9.30
2022-11-25T09:53:30.417Z,9.50
2022-11-25T09:56:03.684Z,10.00
2022-11-25T09:58:40.868Z,10.80
2022-11-25T10:01:15.552Z,11.50
2022-11-25T10:03:53.821Z,12.00
2022-11-25T10:06:31.031Z,12.50
2022-11-25T10:09:01.478Z,13.00
2022-11-25T10:11:42.341Z,14.30
2022-11-25T10:14:30.458Z,14.90
2022-11-25T10:17:01.781Z,15.70
2022-11-25T10:19:53.141Z,15.90
2022-11-25T10:22:36.278Z,16.90
2022-11-25T10:25:24.535Z,17.30
2022-11-25T10:28:00.605Z,17.50
2022-11-25T10:30:44.803Z,18.90
2022-11-25T10:33:37.828Z,19.30
2022-11-25T10:36:30.719Z,19.60
2022-11-25T10:39:00.514Z,18.80
2022-11-25T10:41:31.774Z,19.20
2022-11-25T10:43:58.431Z,19.90
2022-11-25T10:46:57.092Z,19.80
2022-11-25T10:49:35.975Z,19.80
2022-11-25T10:52:09.891Z,19.70
2022-11-25T10:54:36.698Z,19.90
2022-11-25T10:57:15.812Z,20.20
2022-11-25T10:59:42.563Z,20.10
2022-11-25T11:02:28.842Z,19.80
2022-11-25T11:05:10.601Z,19.50
2022-11-25T11:07:43.883Z,19.90
2022-11-25T11:10:25.844Z,20.20
2022-11-25T11:13:05.011Z,20.40
2022-11-25T11:15:44.083Z,21.30
2022-11-25T11:18:37.220Z,20.70
2022-11-25T11:21:07.228Z,20.30
2022-11-25T11:23:52.006Z,19.70
2022-11-25T11:26:33.220Z,18.40
2022-11-25T11:29:09.795Z,17.00
2022-11-25T11:31:45.944Z,16.20
2022-11-25T11:34:31.692Z,15.20
2022-11-25T11:37:19.410Z,14.40
2022-11-25T11:40:04.449Z,13.70
2022-11-25T11:43:12.001Z,13.40
2022-11-25T11:46:04.956Z,13.20
2022-11-25T11:49:03.295Z,12.90
2022-11-25T11:52:00.177Z,12.80
2022-11-25T11:54:36.784Z,12.80
2022-11-25T11:57:24.605Z,12.90
2022-11-25T11:59:54.533Z,13.00
2022-11-25T12:02:56.784Z,13.20
2022-11-25T12:05:28.295Z,13.20
2022-11-25T12:08:18.538Z,12.90
2022-11-25T12:11:02.583Z,12.80
2022-11-25T12:13:35.637Z,12.60
2022-11-25T12:16:02.258Z,12.60
2022-11-25T12:18:50.579Z,12.40
2022-11-25T12:21:41.853Z,12.20
2022-11-25T12:24:33.247Z,11.90
2022-11-25T12:27:26.490Z,11.80
2022-11-25T12:29:57.639Z,11.70
2022-11-25T12:32:59.417Z,12.00
2022-11-25T12:36:08.072Z,12.30
2022-11-25T12:38:49.691Z,12.30
2022-11-25T12:41:42.962Z,12.60
2022-11-25T12:44:25.675Z,12.90
2022-11-25T12:46:55.131Z,12.90
2022-11-25T12:49:30.830Z,12.90
2022-11-25T12:52:09.222Z,12.80
2022-11-25T12:55:00.692Z,12.70
2022-11-25T12:58:05.199Z,12.70
2022-11-25T13:01:07.147Z,12.50
2022-11-25T13:04:00.688Z,12.40
2022-11-25T13:06:34.683Z,12.30
2022-11-25T13:09:36.119Z,12.20
2022-11-25T13:12:03.109Z,12.00
2022-11-25T13:15:01.520Z,11.80
2022-11-25T13:17:30.228Z,11.70
2022-11-25T13:20:32.840Z,11.70
2022-11-25T13:23:05.583Z,11.60
2022-11-25T13:25:33.053Z,11.60
2022-11-25T13:28:04.917Z,11.40
2022-11-25T13:30:34.532Z,11.60
2022-11-25T13:33:12.897Z,11.60
2022-11-25T13:35:49.916Z,11.60
2022-11-25T13:38:38.758Z,11.50
2022-11-25T13:41:11.374Z,11.50
2022-11-25T13:44:01.135Z,11.50
2022-11-25T13:46:44.036Z,11.50
2022-11-25T13:49:45.467Z,11.40
2022-11-25T13:52:12.036Z,11.40
2022-11-25T13:54:53.561Z,11.30
2022-11-25T13:57:32.281Z,11.30
2022-11-25T14:00:07.202Z,11.30
2022-11-25T14:02:38.057Z,11.30
2022-11-25T14:05:34.912Z,11.30
2022-11-25T14:08:23.329Z,11.10
2022-11-25T14:11:04.805Z,10.90
2022-11-25T14:13:48.531Z,10.70
2022-11-25T14:16:24.210Z,10.50
2022-11-25T14:19:43.436Z,10.40
2022-11-25T14:22:47.455Z,10.30
2022-11-25T14:25:22.243Z,10.20
2022-11-25T14:27:53.890Z,10.00
2022-11-25T14:30:20.830Z,10.00
2022-11-25T14:33:02.313Z,9.90
2022-11-25T14:35:45.357Z,9.80
2022-11-25T14:38:37.175Z,9.80
2022-11-25T14:41:25.415Z,9.80
2022-11-25T14:43:58.291Z,9.70
2022-11-25T14:46:28.253Z,9.70
2022-11-25T14:49:00.339Z,9.70
2022-11-25T14:51:38.290Z,9.70
2022-11-25T14:54:08.526Z,9.60
2022-11-25T14:56:36.940Z,9.50
2022-11-25T14:59:03.549Z,9.40
2022-11-25T15:01:33.618Z,9.40
2022-11-25T15:04:07.159Z,9.40
2022-11-25T15:06:43.194Z,9.30
2022-11-25T15:09:31.357Z,9.30
2022-11-25T15:12:01.389Z,9.20
2022-11-25T15:14:34.377Z,9.10
2022-11-25T15:20:50.348Z,8.90
2022-11-25T15:23:23.189Z,8.70
2022-11-25T15:25:51.985Z,8.60
2022-11-25T15:28:19.109Z,8.40
2022-11-25T15:30:59.826Z,8.30
2022-11-25T15:33:27.566Z,8.10
2022-11-25T15:35:54.388Z,7.90
2022-11-25T15:38:37.831Z,7.80
2022-11-25T15:41:06.580Z,7.60
2022-11-25T15:43:36.649Z,7.40
2022-11-25T15:46:05.479Z,7.30
2022-11-25T15:48:45.119Z,7.30
2022-11-25T15:51:34.460Z,7.10
2022-11-25T15:54:18.437Z,7.10
2022-11-25T15:56:49.880Z,6.80
2022-11-25T15:59:48.821Z,6.90
2022-11-25T16:02:35.935Z,7.00
2022-11-25T16:05:31.728Z,7.10
2022-11-25T16:08:17.960Z,7.10
2022-11-25T16:10:44.613Z,7.10
2022-11-25T16:13:23.684Z,7.20
2022-11-25T16:15:57.671Z,7.30
2022-11-25T16:18:46.905Z,7.40
2022-11-25T16:21:26.152Z,7.40
2022-11-25T16:24:19.621Z,7.50
2022-11-25T16:26:57.422Z,7.60
2022-11-25T16:29:46.998Z,7.60
2022-11-25T16:32:18.835Z,7.60
2022-11-25T16:34:45.792Z,7.60
2022-11-25T16:37:12.713Z,7.50
2022-11-25T16:39:39.762Z,7.50
2022-11-25T16:42:07.953Z,7.50
2022-11-25T16:44:37.168Z,7.50
2022-11-25T16:47:03.993Z,7.50
2022-11-25T16:49:31.886Z,7.50
2022-11-25T16:51:58.534Z,7.40
2022-11-25T16:54:25.159Z,7.40
2022-11-25T16:56:55.253Z,7.30
2022-11-25T16:59:30.714Z,7.30
2022-11-25T17:01:58.393Z,7.30
2022-11-25T17:04:25.226Z,7.20
2022-11-25T17:07:24.210Z,7.20
2022-11-25T17:09:38.595Z,7.20
2022-11-25T17:12:07.569Z,7.10
2022-11-25T17:14:35.777Z,7.10
2022-11-25T17:17:04.283Z,7.10
2022-11-25T17:19:31.126Z,7.00
2022-11-25T17:21:57.774Z,7.00
2022-11-25T17:24:26.035Z,6.90
2022-11-25T17:27:05.320Z,6.90
2022-11-25T17:29:39.616Z,6.80
2022-11-25T17:32:07.167Z,6.70
2022-11-25T17:34:38.105Z,6.70
2022-11-25T17:37:25.835Z,6.80
2022-11-25T17:39:53.503Z,6.70
2022-11-25T17:42:27.484Z,6.70
2022-11-25T17:44:54.594Z,6.50
2022-11-25T17:47:21.358Z,6.50
2022-11-25T17:49:49.303Z,6.40
2022-11-25T17:52:16.210Z,6.40
2022-11-25T17:54:42.859Z,6.30
2022-11-25T17:57:19.824Z,6.40
2022-11-25T17:59:47.793Z,6.80
2022-11-25T18:02:19.525Z,6.90
2022-11-25T18:04:46.654Z,7.00
2022-11-25T18:07:13.513Z,7.00
2022-11-25T18:09:40.320Z,6.90
2022-11-25T18:12:15.623Z,6.80
2022-11-25T18:14:43.388Z,6.70
2022-11-25T18:17:16.658Z,6.50
2022-11-25T18:19:43.439Z,6.50
2022-11-25T18:22:16.257Z,6.40
2022-11-25T18:24:43.061Z,6.50
2022-11-25T18:27:23.813Z,6.60
2022-11-25T18:29:52.354Z,6.60
2022-11-25T18:32:19.203Z,6.70
2022-11-25T18:34:46.056Z,6.60
2022-11-25T18:37:12.726Z,6.60
2022-11-25T18:39:39.819Z,6.50
2022-11-25T18:42:07.666Z,6.40
2022-11-25T18:44:43.580Z,6.40
2022-11-25T18:47:13.827Z,6.40
2022-11-25T18:49:43.579Z,6.40
2022-11-25T18:52:10.345Z,6.40
2022-11-25T18:54:37.048Z,6.40
2022-11-25T18:57:04.839Z,6.50
2022-11-25T18:59:34.660Z,6.60
2022-11-25T19:02:14.888Z,6.50
2022-11-25T19:04:41.793Z,6.50
2022-11-25T19:07:08.472Z,6.60
2022-11-25T19:09:35.108Z,6.60
2022-11-25T19:12:02.861Z,6.60
2022-11-25T19:14:37.543Z,6.60
2022-11-25T19:17:09.307Z,6.60
2022-11-25T19:19:37.866Z,6.70
2022-11-25T19:22:11.455Z,6.70
2022-11-25T19:24:38.342Z,6.70
2022-11-25T19:27:05.188Z,6.80
2022-11-25T19:29:41.542Z,6.80
2022-11-25T19:32:19.065Z,6.70
2022-11-25T19:34:48.330Z,6.70
2022-11-25T19:37:20.360Z,6.70
2022-11-25T19:39:51.181Z,6.60
2022-11-25T19:42:17.916Z,6.50
2022-11-25T19:44:45.956Z,6.50
2022-11-25T19:47:20.528Z,6.40
2022-11-25T19:49:48.097Z,6.40
2022-11-25T19:52:18.126Z,6.40
2022-11-25T19:54:44.889Z,6.40
2022-11-25T19:57:23.314Z,6.40
2022-11-25T19:59:50.255Z,6.40
2022-11-25T20:02:26.130Z,6.40
2022-11-25T20:04:55.985Z,6.30
2022-11-25T20:07:23.005Z,6.20
2022-11-25T20:09:51.468Z,6.10
2022-11-25T20:12:26.473Z,6.00
2022-11-25T20:14:53.180Z,6.00
2022-11-25T20:17:34.114Z,5.90
2022-11-25T20:20:25.359Z,5.80
2022-11-25T20:23:17.698Z,5.70
2022-11-25T20:25:46.996Z,5.60
2022-11-25T20:28:19.486Z,5.60
2022-11-25T20:30:47.508Z,5.40
2022-11-25T20:33:17.714Z,5.40
2022-11-25T20:35:50.724Z,5.40
2022-11-25T20:38:23.429Z,5.30
2022-11-25T20:40:54.067Z,5.40
2022-11-25T20:43:34.315Z,5.40
2022-11-25T20:46:02.067Z,5.30
2022-11-25T20:48:29.563Z,5.40
2022-11-25T20:51:00.067Z,5.30
2022-11-25T20:53:28.037Z,5.30
2022-11-25T20:55:54.664Z,5.30
2022-11-25T20:58:27.067Z,5.30
2022-11-25T21:00:57.446Z,5.20
2022-11-25T21:03:25.043Z,5.10
2022-11-25T21:05:52.876Z,5.00
2022-11-25T21:08:25.394Z,5.00
2022-11-25T21:10:55.461Z,5.00
2022-11-25T21:13:25.127Z,4.90
2022-11-25T21:15:54.501Z,4.80
2022-11-25T21:18:22.533Z,4.80
2022-11-25T21:20:51.499Z,4.70
2022-11-25T21:23:37.949Z,4.70
2022-11-25T21:26:21.903Z,4.60
2022-11-25T21:28:51.091Z,4.50
2022-11-25T21:31:20.484Z,4.40
2022-11-25T21:33:47.743Z,4.40
2022-11-25T21:36:21.953Z,4.30
2022-11-25T21:38:51.271Z,4.30
2022-11-25T21:41:18.709Z,4.30
2022-11-25T21:43:48.796Z,4.30
2022-11-25T21:46:21.192Z,4.30
2022-11-25T21:48:48.590Z,4.30
2022-11-25T21:51:21.750Z,4.40
2022-11-25T21:53:50.727Z,4.30
2022-11-25T21:56:23.733Z,4.40
2022-11-25T21:58:50.439Z,4.40
2022-11-25T22:01:17.616Z,4.40
2022-11-25T22:03:44.356Z,4.50
2022-11-25T22:06:26.160Z,4.60
2022-11-25T22:08:53.047Z,4.70
2022-11-25T22:11:31.681Z,4.70
2022-11-25T22:14:00.659Z,4.80
2022-11-25T22:16:34.087Z,4.90
2022-11-25T22:19:01.102Z,5.00
2022-11-25T22:21:27.803Z,5.00
2022-11-25T22:23:54.619Z,5.10
2022-11-25T22:26:33.057Z,5.10
2022-11-25T22:29:00.900Z,5.20
2022-11-25T22:31:28.607Z,5.20
2022-11-25T22:33:55.913Z,5.20
2022-11-25T22:36:28.701Z,5.30
2022-11-25T22:38:56.175Z,5.30
2022-11-25T22:41:22.969Z,5.30
2022-11-25T22:43:51.640Z,5.30
2022-11-25T22:46:18.781Z,5.30
2022-11-25T22:48:45.973Z,5.40
2022-11-25T22:51:17.714Z,5.40
2022-11-25T22:53:44.351Z,5.40
2022-11-25T22:56:17.164Z,5.40
2022-11-25T22:58:43.837Z,5.30
2022-11-25T23:01:15.298Z,5.40
2022-11-25T23:03:42.905Z,5.40
2022-11-25T23:06:13.237Z,5.50
2022-11-25T23:08:40.186Z,5.50
2022-11-25T23:11:07.221Z,5.50
2022-11-25T23:13:33.920Z,5.40
2022-11-25T23:16:03.786Z,5.40
2022-11-25T23:18:39.115Z,5.30
2022-11-25T23:21:12.360Z,5.20
2022-11-25T23:23:38.991Z,5.30
2022-11-25T23:26:09.789Z,5.30
2022-11-25T23:28:36.453Z,5.30
2022-11-25T23:31:04.203Z,5.30
2022-11-25T23:33:37.861Z,5.30
2022-11-25T23:36:09.101Z,5.30
2022-11-25T23:38:44.357Z,5.20
2022-11-25T23:41:21.324Z,5.20
2022-11-25T23:43:48.294Z,5.10
2022-11-25T23:46:17.145Z,5.10
2022-11-25T23:48:47.398Z,5.00
2022-11-25T23:51:14.153Z,4.90
2022-11-25T23:53:41.230Z,4.80
2022-11-25T23:56:08.013Z,4.70
2022-11-25T23:58:34.831Z,4.60
